Time;durP1;ratioP1;P1;durP2;ratioP2;P2;SDS_P1;SDS_P2;PMS_P1;PMS_P2;Temp;Humidity;BMP_temperature;BMP_pressure;BME280_temperature;BME280_humidity;BME280_pressure;Samples;Min_cycle;Max_cycle;Signal;HPM_P1;HPM_P2
2023/12/29 00:02:07;;;;;;;11.10;1.70;;;25.00;74.20;;;;;;5046873;28;20823;-70
2023/12/29 00:04:34;;;;;;;10.17;2.03;;;25.30;73.50;;;;;;5051340;28;20529;-70
2023/12/29 00:07:02;;;;;;;9.93;2.00;;;25.80;71.80;;;;;;5044606;28;20176;-69
2023/12/29 00:09:30;;;;;;;10.13;2.30;;;25.90;71.10;;;;;;5056954;28;20180;-70
2023/12/29 00:11:57;;;;;;;6.57;1.60;;;26.00;70.70;;;;;;5064324;28;20691;-68
2023/12/29 00:14:26;;;;;;;5.17;1.53;;;26.00;70.20;;;;;;5058543;28;20187;-69
2023/12/29 00:16:57;;;;;;;5.93;1.70;;;25.90;71.00;;;;;;5060914;28;20183;-71
2023/12/29 00:19:24;;;;;;;9.30;2.13;;;25.80;72.50;;;;;;5062767;28;20187;-69
2023/12/29 00:21:51;;;;;;;7.63;2.10;;;26.20;70.60;;;;;;5040414;28;20250;-69
2023/12/29 00:24:19;;;;;;;9.30;1.97;;;26.70;69.60;;;;;;5057033;28;20176;-70
2023/12/29 00:26:47;;;;;;;8.87;1.90;;;26.80;68.50;;;;;;5051410;28;20175;-69
2023/12/29 00:29:17;;;;;;;7.80;2.07;;;26.70;68.20;;;;;;5064617;28;20175;-70
2023/12/29 00:31:44;;;;;;;6.97;1.50;;;26.80;69.30;;;;;;5056472;28;20209;-69
2023/12/29 00:34:12;;;;;;;11.93;1.90;;;26.80;68.30;;;;;;5056238;28;20192;-70
2023/12/29 00:36:39;;;;;;;10.43;2.17;;;26.90;68.20;;;;;;5060143;28;20215;-69
2023/12/29 00:39:06;;;;;;;7.47;1.83;;;27.10;67.50;;;;;;5053925;28;20205;-70
2023/12/29 00:41:34;;;;;;;10.70;2.00;;;27.30;67.70;;;;;;5067218;28;20230;-69
2023/12/29 00:44:01;;;;;;;11.50;2.03;;;27.00;67.90;;;;;;5066428;28;20187;-70
2023/12/29 00:46:28;;;;;;;6.60;2.57;;;26.80;68.80;;;;;;5060175;28;20196;-69
2023/12/29 00:48:56;;;;;;;13.83;2.40;;;26.90;68.70;;;;;;5038084;28;20185;-71
2023/12/29 00:51:24;;;;;;;12.07;1.90;;;26.90;68.60;;;;;;5058771;28;20710;-69
2023/12/29 00:53:53;;;;;;;8.83;2.00;;;26.80;68.40;;;;;;5064883;28;20187;-69
2023/12/29 00:56:21;;;;;;;10.83;2.90;;;26.70;68.80;;;;;;5061410;28;20194;-70
2023/12/29 00:58:48;;;;;;;7.57;2.50;;;26.50;69.70;;;;;;5066990;28;20603;-70
2023/12/29 01:01:16;;;;;;;9.37;2.20;;;26.70;68.60;;;;;;5063210;28;20230;-70
2023/12/29 01:03:43;;;;;;;9.10;2.07;;;26.80;68.80;;;;;;5065177;28;20217;-71
2023/12/29 01:06:10;;;;;;;5.87;2.00;;;26.80;68.50;;;;;;5061481;28;20191;-70
2023/12/29 01:08:38;;;;;;;8.50;2.10;;;26.80;68.90;;;;;;5068040;28;20179;-70
2023/12/29 01:11:05;;;;;;;12.83;2.50;;;26.80;68.20;;;;;;5068995;28;20188;-69
2023/12/29 01:13:32;;;;;;;10.60;2.17;;;26.80;69.20;;;;;;5064532;28;20187;-69
2023/12/29 01:16:00;;;;;;;10.70;2.37;;;27.00;68.20;;;;;;5061514;28;20201;-68
2023/12/29 01:18:27;;;;;;;9.73;2.57;;;27.00;67.80;;;;;;5063092;28;20621;-69
2023/12/29 01:20:54;;;;;;;10.00;1.90;;;26.90;68.10;;;;;;5060516;28;20738;-69
2023/12/29 01:23:22;;;;;;;9.00;2.13;;;27.00;67.70;;;;;;5064599;28;20179;-68
2023/12/29 01:25:49;;;;;;;14.20;2.30;;;27.00;68.50;;;;;;5057865;28;20215;-69
2023/12/29 01:28:16;;;;;;;7.37;2.27;;;26.90;68.70;;;;;;5072450;28;20236;-68
2023/12/29 01:30:44;;;;;;;11.20;2.43;;;27.10;67.80;;;;;;5069994;28;20266;-68
2023/12/29 01:33:11;;;;;;;10.13;2.77;;;26.80;68.30;;;;;;5069623;28;20168;-67
2023/12/29 01:35:40;;;;;;;11.13;2.90;;;26.70;69.50;;;;;;5069052;28;20241;-68
2023/12/29 01:38:07;;;;;;;10.03;2.00;;;26.50;69.50;;;;;;5061256;28;20669;-69
2023/12/29 01:40:47;;;;;;;9.60;2.43;;;26.80;69.30;;;;;;5053807;28;20265;-67
2023/12/29 01:43:14;;;;;;;9.37;2.13;;;27.20;67.40;;;;;;5056085;28;20176;-69
2023/12/29 01:45:42;;;;;;;11.33;2.70;;;27.40;67.60;;;;;;5049051;28;20211;-69
2023/12/29 01:48:10;;;;;;;14.13;2.40;;;27.80;65.80;;;;;;5060254;28;20180;-70
2023/12/29 01:50:37;;;;;;;9.33;2.20;;;27.50;66.90;;;;;;5052734;28;20184;-70
2023/12/29 01:53:06;;;;;;;6.83;1.97;;;27.70;66.50;;;;;;5055106;28;20180;-70
2023/12/29 01:55:35;;;;;;;12.00;2.13;;;27.50;67.10;;;;;;5056170;28;20180;-69
2023/12/29 01:58:03;;;;;;;11.93;2.10;;;27.50;66.20;;;;;;5034261;28;20177;-68
2023/12/29 02:00:31;;;;;;;9.40;2.30;;;27.80;65.50;;;;;;5050267;28;20212;-68
2023/12/29 02:02:59;;;;;;;14.43;3.07;;;28.00;65.10;;;;;;5049039;28;20208;-68
2023/12/29 02:05:29;;;;;;;11.53;2.33;;;28.00;65.10;;;;;;5056384;28;20191;-69
2023/12/29 02:08:04;;;;;;;7.93;2.03;;;27.90;65.50;;;;;;5073873;28;20512;-68
2023/12/29 02:10:32;;;;;;;13.73;2.97;;;28.10;64.60;;;;;;5027362;28;20182;-68
2023/12/29 02:13:00;;;;;;;9.73;2.10;;;27.80;65.10;;;;;;5049080;28;20179;-68
2023/12/29 02:15:27;;;;;;;9.77;2.50;;;27.80;65.70;;;;;;5059534;28;20189;-68
2023/12/29 02:18:06;;;;;;;9.70;2.00;;;27.90;64.90;;;;;;5068255;28;20211;-68
2023/12/29 02:20:34;;;;;;;9.60;2.27;;;27.80;65.30;;;;;;5064311;28;20203;-69
2023/12/29 02:23:02;;;;;;;9.43;2.30;;;27.70;65.40;;;;;;5055838;28;20191;-68
2023/12/29 02:25:30;;;;;;;12.47;2.77;;;27.50;66.70;;;;;;5054475;28;20642;-68
2023/12/29 02:28:10;;;;;;;7.43;2.13;;;27.60;65.90;;;;;;5068150;28;20186;-69
2023/12/29 02:31:08;;;;;;;15.50;2.70;;;27.50;67.10;;;;;;5054354;28;20218;-69
2023/12/29 02:33:41;;;;;;;8.00;2.20;;;27.70;66.90;;;;;;5045277;28;20218;-69
2023/12/29 02:36:12;;;;;;;6.27;1.87;;;27.60;66.90;;;;;;5073850;28;20252;-68
2023/12/29 02:38:41;;;;;;;8.40;2.07;;;27.50;66.60;;;;;;5051541;28;20191;-68
2023/12/29 02:41:13;;;;;;;12.17;2.67;;;27.40;66.60;;;;;;5043833;28;20612;-69
2023/12/29 02:43:42;;;;;;;11.90;2.40;;;27.40;66.80;;;;;;5018491;28;20266;-68
2023/12/29 02:46:10;;;;;;;7.77;1.80;;;27.20;67.60;;;;;;5044025;28;20203;-69
2023/12/29 02:48:38;;;;;;;12.73;3.07;;;27.20;67.90;;;;;;5050090;28;20183;-70
2023/12/29 02:51:08;;;;;;;12.53;2.80;;;27.10;68.20;;;;;;5022297;28;20279;-67
2023/12/29 02:53:48;;;;;;;8.03;2.20;;;27.20;68.30;;;;;;5044177;28;20237;-71
2023/12/29 02:56:16;;;;;;;10.37;2.30;;;27.20;68.60;;;;;;5045940;28;20180;-69
2023/12/29 02:58:45;;;;;;;10.47;2.30;;;27.20;67.60;;;;;;5044567;28;20679;-69
2023/12/29 03:01:13;;;;;;;7.77;1.90;;;27.00;68.30;;;;;;5038452;28;20670;-69
2023/12/29 03:03:41;;;;;;;10.10;1.70;;;26.90;68.20;;;;;;5041157;28;20336;-67
2023/12/29 03:06:09;;;;;;;14.60;2.40;;;26.90;69.00;;;;;;5043709;28;20187;-70
2023/12/29 03:08:36;;;;;;;9.07;1.87;;;26.70;69.50;;;;;;5047321;28;20226;-69
2023/12/29 03:11:04;;;;;;;6.27;1.90;;;26.40;70.60;;;;;;5016097;28;20311;-67
2023/12/29 03:13:32;;;;;;;9.50;2.03;;;26.60;70.10;;;;;;5019721;28;20180;-70
2023/12/29 03:15:59;;;;;;;13.67;2.67;;;26.70;69.60;;;;;;5041673;28;20655;-68
2023/12/29 03:18:27;;;;;;;12.87;2.83;;;26.60;69.80;;;;;;5040397;28;20189;-70
2023/12/29 03:20:54;;;;;;;8.97;2.00;;;26.70;69.50;;;;;;5037004;28;20228;-68
2023/12/29 03:23:22;;;;;;;9.77;2.30;;;26.70;69.20;;;;;;5038839;28;20193;-71
2023/12/29 03:25:54;;;;;;;8.87;2.10;;;26.90;68.60;;;;;;5025721;28;20286;-69
2023/12/29 03:28:24;;;;;;;10.30;2.13;;;26.70;69.20;;;;;;5038580;28;20180;-71
2023/12/29 03:31:00;;;;;;;11.57;2.40;;;26.80;69.10;;;;;;5040300;28;20552;-70
2023/12/29 03:33:27;;;;;;;15.00;3.07;;;26.50;70.30;;;;;;5010821;28;20643;-69
2023/12/29 03:35:55;;;;;;;11.20;2.53;;;26.70;70.00;;;;;;5039781;28;20188;-68
2023/12/29 03:38:23;;;;;;;6.73;2.00;;;26.80;69.20;;;;;;5003619;28;20185;-69
2023/12/29 03:40:52;;;;;;;10.40;1.93;;;26.90;68.70;;;;;;5051522;28;20226;-68
2023/12/29 03:43:19;;;;;;;12.03;2.30;;;27.00;68.50;;;;;;5059112;28;20570;-69
2023/12/29 03:45:47;;;;;;;11.43;2.43;;;27.00;69.00;;;;;;5069293;28;20175;-68
2023/12/29 03:48:18;;;;;;;12.77;2.50;;;27.00;68.60;;;;;;5044587;28;20190;-70
2023/12/29 03:50:52;;;;;;;8.97;2.00;;;26.70;68.70;;;;;;5046538;28;20180;-69
2023/12/29 03:53:26;;;;;;;13.23;2.87;;;26.50;70.50;;;;;;5066647;28;20183;-69
2023/12/29 03:55:54;;;;;;;8.97;2.10;;;26.70;69.60;;;;;;5062315;28;20635;-69
2023/12/29 03:58:24;;;;;;;11.43;2.93;;;26.60;69.90;;;;;;5041685;28;20187;-71
2023/12/29 04:00:51;;;;;;;9.23;2.23;;;26.60;70.20;;;;;;5039080;28;20246;-69
2023/12/29 04:03:19;;;;;;;11.03;2.83;;;26.70;69.80;;;;;;5058005;28;20179;-68
2023/12/29 04:05:51;;;;;;;10.47;2.93;;;26.60;69.80;;;;;;5069191;28;20283;-68
2023/12/29 04:08:19;;;;;;;12.13;2.87;;;26.80;70.40;;;;;;5034126;28;20192;-68
2023/12/29 04:10:46;;;;;;;7.77;2.00;;;27.00;69.40;;;;;;5061742;28;20191;-67
2023/12/29 04:13:17;;;;;;;11.70;2.67;;;26.80;70.10;;;;;;5063423;28;20187;-68
2023/12/29 04:15:45;;;;;;;11.60;2.80;;;26.80;69.50;;;;;;5059291;28;20188;-67
2023/12/29 04:18:13;;;;;;;9.23;2.53;;;26.70;69.70;;;;;;5056231;28;20183;-70
2023/12/29 04:20:41;;;;;;;11.00;2.40;;;26.40;71.10;;;;;;5057612;28;20301;-68
2023/12/29 04:23:12;;;;;;;8.77;2.20;;;26.50;70.40;;;;;;5040644;28;20191;-68
2023/12/29 04:25:39;;;;;;;15.53;2.47;;;26.60;71.10;;;;;;5060354;28;20540;-69
2023/12/29 04:28:10;;;;;;;10.40;2.87;;;26.50;70.40;;;;;;5058674;28;20190;-70
2023/12/29 04:30:38;;;;;;;11.47;3.00;;;26.30;71.50;;;;;;5041056;28;20193;-69
2023/12/29 04:33:09;;;;;;;10.33;2.40;;;26.30;71.30;;;;;;5068871;28;20520;-68
2023/12/29 04:35:36;;;;;;;11.10;2.40;;;26.20;71.50;;;;;;5057360;28;20187;-69
2023/12/29 04:38:03;;;;;;;7.83;2.10;;;25.90;73.10;;;;;;5070935;28;20171;-70
2023/12/29 04:40:31;;;;;;;11.37;2.20;;;25.90;72.40;;;;;;5058652;28;20230;-69
2023/12/29 04:42:58;;;;;;;11.93;2.40;;;25.80;72.70;;;;;;5065688;28;20179;-68
2023/12/29 04:45:26;;;;;;;18.33;3.23;;;25.80;73.50;;;;;;5058970;28;20736;-69
2023/12/29 04:47:53;;;;;;;9.13;3.10;;;25.60;73.70;;;;;;5062117;28;20545;-69
2023/12/29 04:50:20;;;;;;;14.30;3.43;;;25.60;74.10;;;;;;5062756;28;20179;-68
2023/12/29 04:52:48;;;;;;;17.63;3.13;;;25.70;73.90;;;;;;5064443;28;20195;-68
2023/12/29 04:55:16;;;;;;;13.10;3.03;;;25.60;74.30;;;;;;5055827;28;20310;-68
2023/12/29 04:57:43;;;;;;;16.97;2.80;;;25.70;74.10;;;;;;5051731;28;20180;-68
2023/12/29 05:00:11;;;;;;;11.87;2.67;;;25.80;74.10;;;;;;5054777;28;20254;-68
2023/12/29 05:02:38;;;;;;;14.30;2.87;;;26.10;73.20;;;;;;5049612;28;20310;-71
2023/12/29 05:05:06;;;;;;;12.07;2.70;;;26.50;72.50;;;;;;5044718;28;20184;-69
2023/12/29 05:07:33;;;;;;;17.37;2.97;;;27.10;70.00;;;;;;5036760;28;20267;-69
2023/12/29 05:10:00;;;;;;;9.67;2.47;;;27.30;68.90;;;;;;5050564;28;20199;-68
2023/12/29 05:12:28;;;;;;;8.67;2.27;;;27.10;69.00;;;;;;5050882;28;20169;-68
2023/12/29 05:14:55;;;;;;;13.23;2.57;;;26.70;70.80;;;;;;5045989;28;20540;-70
2023/12/29 05:17:22;;;;;;;9.33;2.13;;;26.60;71.90;;;;;;5053082;28;20175;-68
2023/12/29 05:19:50;;;;;;;10.40;2.73;;;26.60;71.80;;;;;;5042180;28;20587;-68
2023/12/29 05:22:17;;;;;;;8.47;2.23;;;26.70;71.20;;;;;;5051039;28;20267;-69
2023/12/29 05:24:48;;;;;;;8.97;2.37;;;26.70;71.20;;;;;;5046556;28;20204;-69
2023/12/29 05:27:15;;;;;;;10.50;2.17;;;26.60;71.20;;;;;;5038117;28;20178;-68
2023/12/29 05:29:43;;;;;;;14.57;2.63;;;26.70;71.10;;;;;;5049938;28;20684;-68
2023/12/29 05:32:10;;;;;;;7.07;1.97;;;26.70;70.40;;;;;;5038933;28;20264;-68
2023/12/29 05:34:37;;;;;;;8.17;2.30;;;26.40;71.70;;;;;;5050655;28;20638;-70
2023/12/29 05:37:04;;;;;;;10.70;2.20;;;26.70;70.60;;;;;;5043727;28;20588;-69
2023/12/29 05:39:32;;;;;;;8.60;2.23;;;26.60;71.10;;;;;;5041155;28;20237;-67
2023/12/29 05:41:59;;;;;;;9.83;2.20;;;26.10;71.30;;;;;;5036929;28;20239;-68
2023/12/29 05:44:26;;;;;;;12.90;3.17;;;25.80;73.30;;;;;;5032333;28;20180;-68
2023/12/29 05:46:54;;;;;;;8.73;2.13;;;25.50;74.20;;;;;;5039539;28;20188;-69
2023/12/29 05:49:26;;;;;;;9.53;2.40;;;25.40;74.70;;;;;;5037194;28;20191;-68
2023/12/29 05:51:53;;;;;;;9.73;2.30;;;25.40;74.90;;;;;;5032274;28;20665;-68
2023/12/29 05:54:20;;;;;;;10.07;2.17;;;25.40;75.00;;;;;;5041029;28;20204;-68
2023/12/29 05:56:48;;;;;;;16.70;2.40;;;25.40;75.70;;;;;;5032001;28;20188;-69
2023/12/29 05:59:15;;;;;;;15.00;2.87;;;25.40;76.20;;;;;;5037152;28;20192;-68
2023/12/29 06:01:42;;;;;;;13.63;3.37;;;25.40;77.00;;;;;;5038476;28;20311;-69
2023/12/29 06:04:10;;;;;;;12.37;2.50;;;25.40;76.80;;;;;;5026377;28;20189;-68
2023/12/29 06:06:37;;;;;;;11.50;2.50;;;25.30;76.50;;;;;;5045910;28;20199;-70
2023/12/29 06:09:04;;;;;;;10.03;2.47;;;25.30;76.80;;;;;;5037492;28;20703;-70
2023/12/29 06:11:32;;;;;;;10.40;3.10;;;25.20;77.20;;;;;;5031837;28;20226;-69
2023/12/29 06:14:00;;;;;;;7.97;2.20;;;24.90;77.60;;;;;;5013025;28;20196;-67
2023/12/29 06:16:29;;;;;;;10.50;2.30;;;25.00;77.70;;;;;;5038721;28;20188;-68
2023/12/29 06:18:57;;;;;;;13.43;2.33;;;25.20;77.40;;;;;;5033931;28;20271;-68
2023/12/29 06:21:24;;;;;;;9.47;2.27;;;25.40;77.70;;;;;;5036376;28;20306;-70
2023/12/29 06:23:51;;;;;;;12.17;2.77;;;25.40;76.80;;;;;;5029970;28;20281;-68
2023/12/29 06:26:20;;;;;;;13.03;2.60;;;25.30;77.60;;;;;;5024838;28;20315;-69
2023/12/29 06:28:48;;;;;;;11.67;2.77;;;25.30;77.30;;;;;;5035486;28;20180;-68
2023/12/29 06:31:18;;;;;;;12.07;2.77;;;25.20;77.00;;;;;;5037631;28;20634;-67
2023/12/29 06:33:46;;;;;;;9.50;2.57;;;24.90;77.90;;;;;;5045554;28;20176;-71
2023/12/29 06:36:13;;;;;;;11.37;2.63;;;24.80;78.40;;;;;;5039366;28;20179;-73
2023/12/29 06:38:41;;;;;;;11.53;2.67;;;24.80;78.80;;;;;;5035451;28;20234;-69
2023/12/29 06:41:09;;;;;;;12.67;3.13;;;24.90;78.90;;;;;;5046438;28;20223;-69
2023/12/29 06:43:36;;;;;;;13.93;2.90;;;24.80;79.40;;;;;;5069446;28;20582;-68
2023/12/29 06:46:04;;;;;;;18.23;3.17;;;24.80;79.70;;;;;;5061589;28;20187;-68
2023/12/29 06:48:31;;;;;;;13.57;3.13;;;24.80;79.80;;;;;;5063365;28;20267;-71
2023/12/29 06:50:58;;;;;;;13.57;2.97;;;24.80;79.70;;;;;;5062569;28;20609;-68
2023/12/29 06:53:26;;;;;;;9.17;2.70;;;24.80;79.90;;;;;;5055779;28;20180;-68
2023/12/29 06:55:53;;;;;;;15.40;3.23;;;24.70;80.00;;;;;;5065997;28;20539;-68
2023/12/29 06:58:20;;;;;;;18.90;3.23;;;24.70;80.70;;;;;;5074194;28;20179;-68
2023/12/29 07:00:48;;;;;;;10.63;4.87;;;24.60;80.70;;;;;;5057781;28;20303;-69
2023/12/29 07:03:15;;;;;;;13.43;3.97;;;24.60;80.90;;;;;;5058897;28;20237;-69
2023/12/29 07:05:43;;;;;;;15.60;8.90;;;24.70;81.10;;;;;;5073253;28;20180;-69
2023/12/29 07:08:14;;;;;;;15.70;4.67;;;24.70;82.10;;;;;;5065927;28;20203;-68
2023/12/29 07:10:42;;;;;;;9.93;2.50;;;24.70;82.60;;;;;;5060765;28;20176;-69
2023/12/29 07:13:09;;;;;;;14.60;2.67;;;24.60;83.20;;;;;;5060148;28;20538;-68
2023/12/29 07:15:37;;;;;;;13.00;3.53;;;24.40;84.20;;;;;;5074908;28;20633;-68
2023/12/29 07:18:04;;;;;;;13.23;2.90;;;24.30;84.30;;;;;;5073809;28;20180;-68
2023/12/29 07:20:32;;;;;;;16.43;3.70;;;24.20;84.60;;;;;;5072679;28;20569;-70
2023/12/29 07:23:01;;;;;;;11.07;2.80;;;24.10;84.90;;;;;;5056467;28;20188;-69
2023/12/29 07:25:28;;;;;;;15.40;3.30;;;24.00;84.90;;;;;;5056612;28;20187;-69
2023/12/29 07:27:56;;;;;;;13.97;3.00;;;24.00;84.90;;;;;;5058009;28;20630;-69
2023/12/29 07:30:23;;;;;;;14.97;3.90;;;24.10;84.60;;;;;;5054072;28;20182;-68
2023/12/29 07:32:51;;;;;;;15.77;3.83;;;24.10;84.40;;;;;;5064641;28;20194;-69
2023/12/29 07:35:19;;;;;;;17.43;3.60;;;24.20;84.50;;;;;;5070046;28;20530;-69
2023/12/29 07:37:47;;;;;;;11.50;3.23;;;24.30;84.70;;;;;;5059820;28;20598;-69
2023/12/29 07:40:15;;;;;;;11.87;3.10;;;24.30;84.40;;;;;;5056463;28;20203;-71
2023/12/29 07:42:44;;;;;;;14.87;3.23;;;24.20;84.30;;;;;;5056148;28;20179;-70
2023/12/29 07:45:11;;;;;;;16.33;3.03;;;24.20;84.40;;;;;;5061628;28;20183;-69
2023/12/29 07:47:39;;;;;;;16.00;3.30;;;24.10;84.30;;;;;;5064549;28;20187;-69
2023/12/29 07:50:06;;;;;;;10.63;3.23;;;24.10;84.20;;;;;;5060230;28;20194;-70
2023/12/29 07:52:34;;;;;;;10.10;2.80;;;24.10;84.20;;;;;;5056310;28;20274;-71
2023/12/29 07:55:01;;;;;;;17.07;3.60;;;24.20;84.50;;;;;;5069505;28;20242;-69
2023/12/29 07:57:29;;;;;;;13.63;3.00;;;24.20;84.30;;;;;;5050969;28;20184;-70
2023/12/29 07:59:56;;;;;;;12.40;2.90;;;24.10;84.10;;;;;;5052988;28;20212;-69
2023/12/29 08:02:24;;;;;;;15.47;3.73;;;24.10;84.40;;;;;;5043453;28;20193;-74
2023/12/29 08:04:51;;;;;;;13.83;2.83;;;24.20;84.40;;;;;;5058249;28;20206;-70
2023/12/29 08:07:18;;;;;;;14.30;3.30;;;24.20;84.00;;;;;;5049248;28;20242;-70
2023/12/29 08:09:46;;;;;;;11.87;2.97;;;24.10;84.10;;;;;;5052606;28;20486;-68
2023/12/29 08:12:13;;;;;;;15.20;3.10;;;24.10;84.20;;;;;;5044601;28;20178;-69
2023/12/29 08:14:40;;;;;;;12.53;3.50;;;24.10;84.40;;;;;;5045148;28;20178;-70
2023/12/29 08:17:08;;;;;;;9.07;3.10;;;24.10;84.20;;;;;;5045186;28;20187;-69
2023/12/29 08:19:36;;;;;;;15.43;2.63;;;24.00;84.30;;;;;;5056257;28;20548;-71
2023/12/29 08:22:03;;;;;;;15.17;2.97;;;24.10;84.50;;;;;;5048528;28;20240;-69
2023/12/29 08:24:31;;;;;;;16.00;3.50;;;24.10;84.50;;;;;;5051225;28;20176;-68
2023/12/29 08:26:58;;;;;;;16.90;3.60;;;24.00;84.60;;;;;;5062027;28;20545;-72
2023/12/29 08:29:26;;;;;;;12.70;3.30;;;24.00;84.60;;;;;;5060977;28;20234;-69
2023/12/29 08:31:53;;;;;;;14.33;3.47;;;24.00;84.70;;;;;;5049838;28;20176;-69
2023/12/29 08:34:20;;;;;;;15.23;3.33;;;24.00;84.50;;;;;;5056363;28;20195;-70
2023/12/29 08:36:48;;;;;;;19.33;3.73;;;24.00;84.70;;;;;;5062816;28;20224;-69
2023/12/29 08:39:15;;;;;;;13.20;4.07;;;24.00;84.70;;;;;;5072903;28;20182;-69
2023/12/29 08:41:42;;;;;;;15.97;3.33;;;23.90;84.80;;;;;;5055141;28;20270;-70
2023/12/29 08:44:10;;;;;;;11.97;3.70;;;23.90;85.00;;;;;;5051890;28;20191;-69
2023/12/29 08:46:37;;;;;;;17.63;3.87;;;23.90;84.90;;;;;;5063456;28;20571;-69
2023/12/29 08:49:05;;;;;;;16.87;4.03;;;23.90;84.90;;;;;;5060060;28;20205;-69
2023/12/29 08:51:32;;;;;;;15.83;3.67;;;23.90;85.00;;;;;;5072729;28;20190;-70
2023/12/29 08:54:00;;;;;;;10.83;3.43;;;23.90;85.10;;;;;;5059349;28;20517;-69
2023/12/29 08:56:29;;;;;;;12.43;3.77;;;24.00;84.90;;;;;;5061838;28;20179;-69
2023/12/29 08:58:56;;;;;;;15.37;3.30;;;24.00;84.70;;;;;;5056774;28;20180;-70
2023/12/29 09:01:23;;;;;;;10.20;3.23;;;24.00;84.70;;;;;;5052274;28;20207;-69
2023/12/29 09:03:50;;;;;;;13.57;3.53;;;23.90;84.70;;;;;;5061217;28;20202;-70
2023/12/29 09:06:18;;;;;;;14.37;3.80;;;23.90;84.90;;;;;;5058842;28;20186;-71
2023/12/29 09:08:45;;;;;;;11.57;3.17;;;23.90;85.00;;;;;;5058586;28;20254;-68
2023/12/29 09:11:12;;;;;;;19.17;3.47;;;23.90;85.00;;;;;;5069843;28;20232;-70
2023/12/29 09:13:40;;;;;;;10.47;3.77;;;23.80;85.10;;;;;;5040715;28;20560;-71
2023/12/29 09:16:07;;;;;;;20.30;4.20;;;23.80;85.30;;;;;;5046783;28;20198;-69
2023/12/29 09:18:34;;;;;;;14.50;4.10;;;23.80;85.30;;;;;;5053416;28;20183;-68
2023/12/29 09:21:02;;;;;;;15.27;4.90;;;23.70;85.60;;;;;;5062195;28;20292;-68
2023/12/29 09:23:29;;;;;;;16.47;4.07;;;23.70;85.70;;;;;;5060287;28;20256;-68
2023/12/29 09:25:56;;;;;;;16.67;3.80;;;23.60;85.90;;;;;;5059814;28;20184;-68
2023/12/29 09:28:24;;;;;;;15.13;4.30;;;23.60;86.00;;;;;;5060260;28;20276;-69
2023/12/29 09:30:51;;;;;;;12.03;4.00;;;23.50;86.10;;;;;;5049698;28;20192;-69
2023/12/29 09:33:18;;;;;;;16.30;4.33;;;23.50;86.60;;;;;;5051679;28;20191;-68
2023/12/29 09:35:46;;;;;;;13.17;4.10;;;23.40;86.80;;;;;;5055963;28;20650;-69
2023/12/29 09:38:14;;;;;;;11.43;3.97;;;23.40;86.70;;;;;;5072533;28;20735;-71
2023/12/29 09:40:42;;;;;;;16.27;4.63;;;23.30;86.90;;;;;;5054380;28;20266;-69
2023/12/29 09:43:10;;;;;;;15.67;4.50;;;23.30;87.00;;;;;;5063935;28;20604;-70
2023/12/29 09:45:42;;;;;;;16.07;4.43;;;23.30;87.10;;;;;;5059105;28;20187;-67
2023/12/29 09:48:13;;;;;;;18.73;4.37;;;23.30;87.30;;;;;;5066419;28;20240;-67
2023/12/29 09:50:42;;;;;;;19.83;4.77;;;23.30;87.50;;;;;;5055691;28;20195;-70
2023/12/29 09:53:12;;;;;;;16.10;4.83;;;23.30;87.60;;;;;;5058444;28;20172;-67
2023/12/29 09:55:40;;;;;;;15.17;5.10;;;23.30;87.80;;;;;;5056250;28;20657;-69
2023/12/29 09:58:10;;;;;;;15.43;4.90;;;23.30;87.60;;;;;;5060302;28;20187;-69
2023/12/29 10:00:38;;;;;;;12.63;4.60;;;23.30;87.70;;;;;;5052920;28;20241;-68
2023/12/29 10:03:06;;;;;;;14.57;4.63;;;23.20;87.80;;;;;;5054477;28;20184;-69
2023/12/29 10:05:33;;;;;;;17.07;4.47;;;23.20;87.90;;;;;;5066233;28;20699;-69
2023/12/29 10:08:06;;;;;;;11.10;4.13;;;23.20;88.00;;;;;;5068946;28;20219;-69
2023/12/29 10:10:36;;;;;;;10.27;4.47;;;23.20;88.10;;;;;;5073206;28;20179;-68
2023/12/29 10:13:06;;;;;;;13.30;5.20;;;23.20;88.30;;;;;;5060727;28;20583;-70
2023/12/29 10:15:38;;;;;;;16.03;4.27;;;23.20;88.40;;;;;;5060192;28;20179;-69
2023/12/29 10:18:23;;;;;;;12.90;4.17;;;23.20;88.00;;;;;;5064878;28;20187;-70
2023/12/29 10:21:12;;;;;;;13.70;3.53;;;23.10;87.50;;;;;;5067207;28;20618;-70
2023/12/29 10:23:50;;;;;;;12.90;3.40;;;23.10;86.80;;;;;;5064619;28;20187;-69
2023/12/29 10:26:18;;;;;;;6.87;3.00;;;23.00;86.30;;;;;;5062617;28;20712;-69
2023/12/29 10:28:48;;;;;;;8.87;2.80;;;23.00;85.50;;;;;;5064175;28;20233;-69
2023/12/29 10:31:16;;;;;;;4.80;1.90;;;22.90;84.30;;;;;;5056811;28;20239;-69
2023/12/29 10:33:44;;;;;;;4.90;1.77;;;22.80;82.10;;;;;;5063860;28;20656;-68
2023/12/29 10:36:11;;;;;;;5.27;1.90;;;22.80;79.40;;;;;;5057641;28;20654;-71
2023/12/29 10:38:44;;;;;;;7.00;1.70;;;22.90;78.80;;;;;;5057732;28;20662;-69
2023/12/29 10:41:13;;;;;;;4.33;1.40;;;22.90;77.20;;;;;;5056688;28;20234;-69
2023/12/29 10:43:52;;;;;;;3.40;1.37;;;22.80;74.70;;;;;;5054530;28;20238;-69
2023/12/29 10:46:20;;;;;;;1.90;1.10;;;22.90;73.10;;;;;;5054596;28;20600;-69
2023/12/29 10:48:48;;;;;;;4.17;1.40;;;22.90;72.60;;;;;;5054163;28;20540;-69
2023/12/29 10:51:15;;;;;;;2.97;1.00;;;22.90;71.70;;;;;;5054163;28;20262;-68
2023/12/29 10:53:54;;;;;;;4.17;1.63;;;23.00;71.10;;;;;;5054115;28;20255;-70
2023/12/29 10:56:22;;;;;;;4.37;1.20;;;22.90;71.10;;;;;;5055685;28;20253;-70
2023/12/29 10:59:02;;;;;;;3.10;1.40;;;23.00;71.60;;;;;;5054416;28;20622;-69
2023/12/29 11:01:39;;;;;;;5.37;1.20;;;22.90;71.80;;;;;;5053999;28;20215;-69
2023/12/29 11:04:09;;;;;;;5.43;1.60;;;22.90;72.20;;;;;;5052901;28;20207;-68
2023/12/29 11:06:47;;;;;;;2.87;1.30;;;22.90;72.40;;;;;;5049064;28;20192;-72
2023/12/29 11:09:14;;;;;;;4.53;1.40;;;22.80;72.00;;;;;;5054068;28;20183;-69
2023/12/29 11:11:43;;;;;;;2.67;1.30;;;22.80;71.70;;;;;;5053534;28;20191;-69
2023/12/29 11:14:14;;;;;;;5.90;1.40;;;22.80;71.40;;;;;;5051859;28;20577;-72
2023/12/29 11:16:43;;;;;;;2.80;1.40;;;22.90;71.20;;;;;;5053490;28;20192;-69
2023/12/29 11:19:13;;;;;;;3.60;1.40;;;22.90;70.50;;;;;;5053668;28;20271;-73
2023/12/29 11:21:42;;;;;;;3.03;1.47;;;22.90;70.50;;;;;;5052532;28;20685;-73
2023/12/29 11:24:10;;;;;;;4.37;1.40;;;22.90;70.50;;;;;;5053227;28;20192;-69
2023/12/29 11:26:38;;;;;;;3.10;1.40;;;22.90;70.70;;;;;;5053596;28;20188;-68
2023/12/29 11:29:07;;;;;;;3.03;1.40;;;22.80;70.40;;;;;;5051201;28;20184;-74
2023/12/29 11:31:35;;;;;;;2.10;1.47;;;22.90;70.60;;;;;;5045927;28;20654;-70
2023/12/29 11:34:29;;;;;;;2.23;1.27;;;22.90;70.20;;;;;;5052742;28;20180;-70
2023/12/29 11:37:26;;;;;;;2.70;1.40;;;23.00;68.40;;;;;;5037036;28;20337;-75
2023/12/29 11:40:20;;;;;;;9.23;4.20;;;23.00;68.80;;;;;;5045055;28;20211;-72
2023/12/29 11:42:52;;;;;;;4.20;1.67;;;23.00;68.90;;;;;;5053043;28;20211;-69
2023/12/29 11:45:26;;;;;;;7.73;1.70;;;23.00;68.90;;;;;;5051352;28;20184;-68
2023/12/29 11:47:55;;;;;;;3.97;1.87;;;23.00;69.10;;;;;;5052003;28;20187;-68
2023/12/29 11:50:42;;;;;;;4.20;1.70;;;23.00;69.00;;;;;;5052483;28;20366;-68
2023/12/29 11:53:29;;;;;;;4.43;1.90;;;22.90;69.20;;;;;;5052040;28;20179;-70
2023/12/29 11:55:56;;;;;;;4.20;1.83;;;23.00;69.40;;;;;;5051798;28;20191;-68
2023/12/29 11:58:31;;;;;;;3.23;2.23;;;23.00;69.70;;;;;;5052992;28;20188;-73
2023/12/29 12:00:59;;;;;;;5.80;1.93;;;22.90;70.00;;;;;;5052026;28;20237;-72
2023/12/29 12:03:29;;;;;;;4.87;1.87;;;22.80;70.30;;;;;;5052779;28;20330;-70
2023/12/29 12:05:58;;;;;;;5.13;1.83;;;22.90;70.70;;;;;;5051791;28;20184;-68
2023/12/29 12:08:31;;;;;;;4.53;1.83;;;22.80;70.80;;;;;;5052474;28;20261;-70
2023/12/29 12:11:19;;;;;;;4.67;1.80;;;22.80;71.10;;;;;;5051657;28;20184;-72
2023/12/29 12:13:47;;;;;;;4.83;2.13;;;22.80;71.30;;;;;;5051639;28;20188;-70
2023/12/29 12:16:45;;;;;;;6.70;2.30;;;22.80;71.40;;;;;;5050377;28;20192;-72
2023/12/29 12:19:14;;;;;;;6.73;3.10;;;22.80;71.50;;;;;;5052699;28;20175;-72
2023/12/29 12:21:41;;;;;;;4.80;2.07;;;22.80;71.80;;;;;;5049617;28;20268;-71
2023/12/29 12:24:09;;;;;;;4.57;1.93;;;22.80;72.00;;;;;;5055793;28;20638;-72
2023/12/29 12:26:36;;;;;;;7.70;2.30;;;22.70;72.30;;;;;;5055337;28;20187;-72
2023/12/29 12:29:07;;;;;;;7.77;2.37;;;22.60;72.20;;;;;;5051930;28;20176;-69
2023/12/29 12:31:34;;;;;;;7.27;2.43;;;22.50;72.70;;;;;;5052547;28;20180;-70
2023/12/29 12:34:06;;;;;;;6.30;2.50;;;22.50;73.00;;;;;;5051586;28;20593;-69
2023/12/29 12:36:49;;;;;;;6.80;2.37;;;22.40;73.30;;;;;;5028283;28;20642;-72
2023/12/29 12:39:19;;;;;;;7.30;2.97;;;22.30;73.90;;;;;;5052503;28;20199;-69
2023/12/29 12:41:48;;;;;;;10.07;3.00;;;22.30;74.20;;;;;;5060296;28;20222;-69
2023/12/29 12:44:20;;;;;;;6.67;2.53;;;22.20;74.30;;;;;;5049804;28;20230;-71
2023/12/29 12:46:53;;;;;;;5.70;2.50;;;22.10;74.00;;;;;;5055479;28;20184;-69
2023/12/29 12:49:21;;;;;;;5.17;2.03;;;22.10;74.00;;;;;;5052661;28;20226;-70
2023/12/29 12:51:51;;;;;;;6.13;2.33;;;22.00;74.10;;;;;;5056819;28;20222;-70